This is the latest recevied weather packets stored in our database for station/object G6FJI-13. If no packets are shown the sender has not sent any weather packets the latest 10 day(s).
| Time | Temp. | Humidity | Pressure | Rain* | Wind** | Luminosity | Snow |
|---|---|---|---|---|---|---|---|
| 1778158363 | 15.56° C | 49% | 1018.6 hPa | 0 mm | - | 564 W/m² | - |
| 1778155944 | 16.11° C | 48% | 1018.8 hPa | 0 mm | - | 710 W/m² | - |
| 1778148105 | 13.33° C | 71% | 1019.3 hPa | 0 mm | - | 501 W/m² | - |
| 1778144489 | 10° C | 95% | 1019.6 hPa | 0 mm | - | 151 W/m² | - |
| 1778142090 | 7.22° C | 99% | 1019.8 hPa | 0 mm | - | 170 W/m² | - |
| 1778138493 | 5.56° C | 99% | 1019.4 hPa | 0 mm | - | 66 W/m² | - |
| 1778128364 | 5° C | 97% | 1018.9 hPa | 0 mm | - | 2 W/m² | - |
| 1778125945 | 5° C | 97% | 1018.9 hPa | 0 mm | - | 0 W/m² | - |
| 1778125301 | 4.44° C | 97% | 1019 hPa | 0 mm | - | 0 W/m² | - |
| 1778122904 | 2.78° C | 96% | 1018.7 hPa | 0 mm | - | 0 W/m² | - |
| 1778119949 | 3.33° C | 96% | 1018.8 hPa | 0 mm | - | 0 W/m² | - |
| 1778113729 | 5° C | 94% | 1018.8 hPa | 0 mm | - | 0 W/m² | - |
| 1778111347 | 5.56° C | 93% | 1018.7 hPa | 0 mm | - | 0 W/m² | - |
| 1778110715 | 5.56° C | 93% | 1018.8 hPa | 0 mm | - | 0 W/m² | - |
| 1778109516 | 6.11° C | 92% | 1018.6 hPa | 0 mm | - | 0 W/m² | - |
| 1778108357 | 6.67° C | 91% | 1018.6 hPa | 0 mm | - | 0 W/m² | - |
| 1778107058 | 6.67° C | 91% | 1018.6 hPa | 0 mm | - | 0 W/m² | - |
| 1778106510 | 6.67° C | 90% | 1018.7 hPa | 0 mm | - | 0 W/m² | - |
| 1778104659 | 7.22° C | 88% | 1018.6 hPa | 0 mm | - | 0 W/m² | - |
| 1778097404 | 10° C | 74% | 1017.7 hPa | 0 mm | - | 0 W/m² | - |
| 1778091964 | 11.67° C | 62% | 1017 hPa | 0 mm | - | 23 W/m² | - |
| 1778091321 | 11.67° C | 60% | 1016.9 hPa | 0 mm | - | 29 W/m² | - |
| 1778089505 | 12.22° C | 61% | 1016.7 hPa | 0 mm | - | 40 W/m² | - |
| 1778084070 | 12.78° C | 60% | 1016.4 hPa | 0 mm | - | 64 W/m² | - |
| 1778082147 | 13.33° C | 58% | 1016.5 hPa | 0 mm | - | 74 W/m² | - |
* Rain latest hour (hover to see other rain measurements)
** Current wind speed in m/s (hover to see current wind gust speed)